Baltimore, Maryland
Traffic Map
Current Weather Conditions
Baltimore, Maryland
Overcast Light Snow
Overcast

Feels Like: -3°
Wind Chill: -3° Ceiling: 700
Heat Index: Visibility: 2.5mi
Dew Point: Wind: 10mph
Humidity: 93% Direction: 20° (NNE)
Pressure: 29.89in Gusts: 17mph
Raw Report DataKBWI 261813Z 02009G15KT 2 1/2SM -SNRA BR BKN007 OVC011 01/00 A2989 RMK AO2 P0001
Traffic Incident Summary
Active as of:
Severity:
Category:
InformationThere was an issue retrieving the traffic information for this location. Please try a different location or try again shortly.
Advertisements
Track Severe Weather on mobile